Time;durP1;ratioP1;P1;durP2;ratioP2;P2;SDS_P1;SDS_P2;PMS_P1;PMS_P2;Temp;Humidity;BMP_temperature;BMP_pressure;BME280_temperature;BME280_humidity;BME280_pressure;Samples;Min_cycle;Max_cycle;Signal;HPM_P1;HPM_P2
2021/09/16 00:01:55;;;;;;;0.50;0.50;;;;;;;19.18;100.00;100012.25;5041970;28;20443;-53
2021/09/16 00:04:22;;;;;;;0.67;0.67;;;;;;;19.12;100.00;100005.47;5052354;28;20857;-52
2021/09/16 00:06:49;;;;;;;1.23;1.23;;;;;;;19.16;100.00;100006.97;5043287;28;20447;-53
2021/09/16 00:09:16;;;;;;;0.40;0.20;;;;;;;19.18;100.00;100005.03;5049046;28;20429;-52
2021/09/16 00:11:43;;;;;;;5.30;2.73;;;;;;;19.13;100.00;100011.72;5052805;28;20447;-52
2021/09/16 00:14:10;;;;;;;1.70;1.43;;;;;;;19.05;100.00;100006.88;5052572;28;20501;-54
2021/09/16 00:16:37;;;;;;;0.40;0.20;;;;;;;19.16;100.00;100003.41;5052382;28;20932;-52
2021/09/16 00:19:04;;;;;;;0.80;0.80;;;;;;;19.14;100.00;100006.22;5052685;28;20931;-52
2021/09/16 00:21:31;;;;;;;1.90;1.80;;;;;;;19.14;100.00;100005.34;5052522;28;21211;-52
2021/09/16 00:23:58;;;;;;;1.07;1.07;;;;;;;18.98;100.00;100015.47;5052616;28;20569;-52
2021/09/16 00:26:25;;;;;;;0.60;0.60;;;;;;;19.11;100.00;100017.22;5052417;28;20447;-52
2021/09/16 00:28:52;;;;;;;0.97;0.97;;;;;;;19.03;100.00;100019.56;5044447;28;20547;-52
2021/09/16 00:31:19;;;;;;;0.90;0.87;;;;;;;19.00;100.00;100013.53;5052198;28;20446;-52
2021/09/16 00:33:46;;;;;;;17.50;2.87;;;;;;;19.01;100.00;100015.25;5052220;28;20523;-52
2021/09/16 00:36:13;;;;;;;0.40;0.30;;;;;;;19.02;100.00;100017.84;5052091;28;20825;-52
2021/09/16 00:38:39;;;;;;;0.83;0.83;;;;;;;19.00;100.00;100016.22;5051889;28;20479;-52
2021/09/16 00:41:07;;;;;;;1.60;1.60;;;;;;;19.02;100.00;100009.75;5052209;28;20783;-52
2021/09/16 00:43:34;;;;;;;2.10;2.00;;;;;;;18.99;100.00;100018.03;5052152;28;20524;-52
2021/09/16 00:46:05;;;;;;;1.10;1.10;;;;;;;18.96;100.00;100017.41;5052007;28;20945;-52
2021/09/16 00:48:33;;;;;;;2.93;1.17;;;;;;;18.98;100.00;100016.31;5052174;28;20448;-52
2021/09/16 00:51:00;;;;;;;4.00;2.77;;;;;;;18.97;100.00;100013.72;5052046;28;20454;-52
2021/09/16 00:53:29;;;;;;;0.50;0.50;;;;;;;19.06;100.00;100023.91;5051812;28;20988;-52
2021/09/16 00:55:58;;;;;;;0.60;0.60;;;;;;;19.08;100.00;100030.91;5052173;28;20474;-52
2021/09/16 00:58:28;;;;;;;0.97;0.97;;;;;;;19.02;100.00;100039.38;5049964;28;20536;-52
2021/09/16 01:00:55;;;;;;;1.07;1.07;;;;;;;19.01;100.00;100052.97;5038577;28;20452;-52
2021/09/16 01:03:23;;;;;;;1.77;1.67;;;;;;;18.92;100.00;100043.69;5051987;28;20939;-52
2021/09/16 01:05:51;;;;;;;0.60;0.60;;;;;;;18.94;100.00;100044.44;5051721;28;20464;-52
2021/09/16 01:08:19;;;;;;;0.40;0.20;;;;;;;18.96;100.00;100033.56;5034178;28;20479;-52
2021/09/16 01:10:47;;;;;;;0.40;0.20;;;;;;;18.94;100.00;100045.31;5051645;28;20428;-52
2021/09/16 01:13:15;;;;;;;0.50;0.40;;;;;;;18.88;100.00;100036.75;5055088;28;20451;-52
2021/09/16 01:15:45;;;;;;;0.67;0.67;;;;;;;19.04;100.00;100034.75;5055495;28;20497;-52
2021/09/16 01:18:13;;;;;;;0.40;0.30;;;;;;;19.26;100.00;100038.69;5055849;28;20520;-53
2021/09/16 01:20:40;;;;;;;0.63;0.60;;;;;;;18.94;100.00;100039.06;5042365;28;20505;-52
2021/09/16 01:23:07;;;;;;;0.90;0.90;;;;;;;19.19;100.00;100036.44;5055751;28;20447;-52
2021/09/16 01:25:35;;;;;;;1.23;0.73;;;;;;;18.89;100.00;100043.88;5055324;28;20421;-53
2021/09/16 01:28:03;;;;;;;1.63;1.40;;;;;;;18.96;100.00;100042.50;5051396;28;20467;-52
2021/09/16 01:30:30;;;;;;;0.40;0.20;;;;;;;18.89;100.00;100035.78;5052797;28;20944;-52
2021/09/16 01:32:57;;;;;;;4.00;2.20;;;;;;;18.77;100.00;100036.59;5055641;28;21033;-52
2021/09/16 01:35:25;;;;;;;2.53;2.37;;;;;;;18.84;100.00;100043.31;5055107;28;20518;-52
2021/09/16 01:37:54;;;;;;;1.70;1.60;;;;;;;18.97;100.00;100048.75;5055270;28;20449;-52
2021/09/16 01:40:21;;;;;;;1.13;1.00;;;;;;;18.97;100.00;100036.16;5055192;28;20447;-52
2021/09/16 01:42:48;;;;;;;5.93;0.57;;;;;;;18.98;100.00;100045.09;5055290;28;20433;-52
2021/09/16 01:45:18;;;;;;;3.13;1.27;;;;;;;18.98;100.00;100042.41;5055223;28;20489;-52
2021/09/16 01:47:46;;;;;;;0.40;0.33;;;;;;;18.78;100.00;100047.31;5042977;28;20993;-52
2021/09/16 01:50:17;;;;;;;0.50;0.50;;;;;;;18.77;100.00;100039.28;5054250;28;20486;-52
2021/09/16 01:52:44;;;;;;;0.93;0.93;;;;;;;18.84;100.00;100046.00;5055235;28;20910;-52
2021/09/16 01:55:11;;;;;;;0.87;0.87;;;;;;;19.14;100.00;100049.34;5055096;28;20493;-52
2021/09/16 01:57:38;;;;;;;1.03;1.03;;;;;;;18.76;100.00;100057.28;5054124;28;20502;-55
2021/09/16 02:00:08;;;;;;;11.63;2.00;;;;;;;18.82;100.00;100058.72;5047544;28;20471;-52
2021/09/16 02:02:35;;;;;;;0.40;0.20;;;;;;;18.61;100.00;100064.50;5049687;28;20486;-52
2021/09/16 02:05:02;;;;;;;3.13;1.53;;;;;;;18.70;100.00;100059.53;5054768;28;20422;-53
2021/09/16 02:07:29;;;;;;;0.50;0.40;;;;;;;18.67;100.00;100057.91;5041778;28;20494;-52
2021/09/16 02:09:56;;;;;;;0.40;0.30;;;;;;;18.44;100.00;100058.50;5055010;28;20443;-52
2021/09/16 02:12:23;;;;;;;1.67;0.80;;;;;;;18.43;100.00;100065.72;5054878;28;20516;-52
2021/09/16 02:14:50;;;;;;;0.97;0.97;;;;;;;18.44;100.00;100066.59;5054805;28;20567;-52
2021/09/16 02:17:17;;;;;;;2.80;2.67;;;;;;;18.50;100.00;100066.16;5054544;28;20520;-52
2021/09/16 02:19:44;;;;;;;0.50;0.43;;;;;;;18.38;100.00;100070.53;5054662;28;20474;-52
2021/09/16 02:22:11;;;;;;;0.40;0.33;;;;;;;18.43;100.00;100072.94;5054402;28;20455;-52
2021/09/16 02:24:38;;;;;;;0.60;0.60;;;;;;;18.45;100.00;100065.63;5054493;28;20820;-52
2021/09/16 02:27:05;;;;;;;1.17;1.17;;;;;;;18.47;100.00;100067.25;5054322;28;20604;-52
2021/09/16 02:29:32;;;;;;;0.63;0.60;;;;;;;18.50;100.00;100069.75;5029869;28;20453;-52
2021/09/16 02:31:59;;;;;;;0.40;0.33;;;;;;;18.43;100.00;100064.84;5054515;28;20878;-54
2021/09/16 02:34:26;;;;;;;0.40;0.30;;;;;;;18.44;100.00;100072.81;5054188;28;20518;-52
2021/09/16 02:36:53;;;;;;;0.50;0.30;;;;;;;18.50;100.00;100068.84;5054279;28;20447;-52
2021/09/16 02:39:20;;;;;;;0.40;0.23;;;;;;;18.44;100.00;100078.22;5054289;28;20951;-53
2021/09/16 02:41:46;;;;;;;1.07;0.77;;;;;;;18.46;100.00;100072.72;5054301;28;20458;-52
2021/09/16 02:44:13;;;;;;;2.60;1.90;;;;;;;18.45;100.00;100074.56;5054191;28;20446;-53
2021/09/16 02:46:40;;;;;;;0.57;0.57;;;;;;;18.54;100.00;100075.78;5053862;28;20940;-53
2021/09/16 02:49:07;;;;;;;4.83;2.73;;;;;;;18.53;100.00;100083.00;5054018;28;20473;-52
2021/09/16 02:51:34;;;;;;;4.50;2.00;;;;;;;18.44;100.00;100080.03;5054049;28;20838;-52
2021/09/16 02:54:01;;;;;;;1.70;1.60;;;;;;;18.51;100.00;100081.38;5036303;28;20481;-52
2021/09/16 02:56:28;;;;;;;0.90;0.70;;;;;;;18.57;100.00;100076.44;5053781;28;20447;-53
2021/09/16 02:58:55;;;;;;;1.90;1.80;;;;;;;18.48;100.00;100065.41;5053387;28;20452;-52
2021/09/16 03:01:22;;;;;;;0.83;0.67;;;;;;;18.52;100.00;100066.97;5040140;28;20865;-52
2021/09/16 03:03:49;;;;;;;2.20;1.47;;;;;;;18.38;100.00;100072.38;5053676;28;20422;-54
2021/09/16 03:06:16;;;;;;;0.40;0.40;;;;;;;18.56;100.00;100077.41;5053486;28;20930;-52
2021/09/16 03:08:42;;;;;;;0.90;0.90;;;;;;;18.39;100.00;100074.97;5053431;28;20453;-52
2021/09/16 03:11:09;;;;;;;0.60;0.60;;;;;;;18.52;100.00;100075.91;5053586;28;20478;-52
2021/09/16 03:13:36;;;;;;;1.00;1.00;;;;;;;18.71;100.00;100072.03;5053778;28;20430;-55
2021/09/16 03:16:04;;;;;;;0.40;0.20;;;;;;;18.43;100.00;100071.09;5053578;28;20493;-53
2021/09/16 03:18:30;;;;;;;0.40;0.20;;;;;;;18.49;100.00;100070.69;5053457;28;20513;-52
2021/09/16 03:20:57;;;;;;;7.53;4.20;;;;;;;18.47;100.00;100061.84;5053315;28;20451;-52
2021/09/16 03:23:24;;;;;;;2.10;2.00;;;;;;;18.34;100.00;100061.78;5053444;28;20467;-52
2021/09/16 03:25:52;;;;;;;0.40;0.20;;;;;;;18.37;100.00;100063.44;5053355;28;20457;-52
2021/09/16 03:28:18;;;;;;;0.40;0.30;;;;;;;18.64;100.00;100074.28;5029092;28;20486;-53
2021/09/16 03:30:45;;;;;;;1.97;1.97;;;;;;;18.40;100.00;100074.00;5052208;28;20469;-52
2021/09/16 03:33:12;;;;;;;1.90;1.77;;;;;;;18.39;100.00;100076.78;5053382;28;20479;-52
2021/09/16 03:35:39;;;;;;;3.50;0.93;;;;;;;18.34;100.00;100080.63;5052186;28;20539;-53
2021/09/16 03:38:06;;;;;;;0.40;0.20;;;;;;;18.28;100.00;100085.53;5053134;28;20502;-52
2021/09/16 03:40:33;;;;;;;0.40;0.20;;;;;;;18.34;100.00;100087.81;5052927;28;20417;-52
2021/09/16 03:43:00;;;;;;;0.40;0.20;;;;;;;18.26;100.00;100092.84;5053026;28;20474;-52
2021/09/16 03:45:27;;;;;;;2.17;2.07;;;;;;;18.24;100.00;100102.84;5053139;28;20483;-52
2021/09/16 03:47:54;;;;;;;0.60;0.60;;;;;;;18.33;100.00;100094.19;5053179;28;20445;-52
2021/09/16 03:50:21;;;;;;;0.53;0.53;;;;;;;18.12;100.00;100085.66;5052817;28;20815;-52
2021/09/16 03:52:48;;;;;;;0.53;0.50;;;;;;;18.09;100.00;100080.44;5052788;28;21010;-52
2021/09/16 03:55:16;;;;;;;0.40;0.40;;;;;;;18.22;100.00;100094.84;5052633;28;20570;-53
2021/09/16 03:57:43;;;;;;;0.40;0.20;;;;;;;18.18;100.00;100090.63;5051022;28;20456;-52
2021/09/16 04:00:11;;;;;;;0.50;0.40;;;;;;;18.11;100.00;100085.75;5044638;28;20973;-52
2021/09/16 04:02:39;;;;;;;0.40;0.20;;;;;;;18.10;100.00;100084.03;5047806;28;20482;-52
2021/09/16 04:05:06;;;;;;;1.27;1.27;;;;;;;18.14;100.00;100080.19;5052653;28;20497;-52
2021/09/16 04:07:33;;;;;;;0.40;0.30;;;;;;;18.11;100.00;100083.94;5053166;28;20482;-52
2021/09/16 04:10:01;;;;;;;0.40;0.30;;;;;;;18.36;100.00;100093.97;5052790;28;20425;-52
2021/09/16 04:12:27;;;;;;;0.40;0.20;;;;;;;18.12;100.00;100085.66;5052796;28;20479;-52
2021/09/16 04:14:54;;;;;;;0.73;0.73;;;;;;;18.04;100.00;100083.44;5034695;28;20523;-53
2021/09/16 04:17:21;;;;;;;0.40;0.30;;;;;;;18.08;100.00;100091.31;5052461;28;20517;-54
2021/09/16 04:19:48;;;;;;;0.40;0.20;;;;;;;18.15;100.00;100089.97;5052545;28;20969;-52
2021/09/16 04:22:15;;;;;;;0.40;0.20;;;;;;;18.31;100.00;100090.72;5049882;28;20496;-52
2021/09/16 04:24:44;;;;;;;0.40;0.20;;;;;;;18.15;100.00;100084.59;5024925;28;20422;-52
2021/09/16 04:27:13;;;;;;;0.40;0.30;;;;;;;18.02;100.00;100098.81;5035800;28;20486;-52
2021/09/16 04:29:41;;;;;;;0.80;0.80;;;;;;;18.12;100.00;100098.25;5028350;28;20417;-52
2021/09/16 04:32:09;;;;;;;0.40;0.20;;;;;;;18.12;100.00;100096.41;5031476;28;20453;-56
2021/09/16 04:34:36;;;;;;;0.40;0.20;;;;;;;18.11;100.00;100097.38;5026492;28;20460;-56
2021/09/16 04:37:04;;;;;;;0.40;0.40;;;;;;;18.35;100.00;100103.88;5053347;28;20487;-55
2021/09/16 04:39:31;;;;;;;0.40;0.33;;;;;;;18.21;100.00;100108.41;5035459;28;20429;-56
2021/09/16 04:41:59;;;;;;;0.40;0.30;;;;;;;18.26;100.00;100107.16;5035288;28;20825;-56
2021/09/16 04:44:26;;;;;;;1.43;1.37;;;;;;;18.19;100.00;100105.81;5053155;28;20421;-56
2021/09/16 04:46:53;;;;;;;0.90;0.90;;;;;;;18.21;100.00;100108.41;5053127;28;20425;-55
2021/09/16 04:49:20;;;;;;;2.30;2.00;;;;;;;18.11;100.00;100120.72;5053128;28;20433;-56
2021/09/16 04:51:47;;;;;;;0.50;0.40;;;;;;;18.09;100.00;100126.19;5052122;28;20436;-56
2021/09/16 04:54:14;;;;;;;0.73;0.73;;;;;;;18.32;100.00;100128.31;5052454;28;20425;-56
2021/09/16 04:56:42;;;;;;;3.30;0.67;;;;;;;18.21;100.00;100133.47;5034596;28;20502;-56
2021/09/16 04:59:10;;;;;;;0.40;0.20;;;;;;;18.20;100.00;100131.75;5033101;28;20566;-56
2021/09/16 05:01:37;;;;;;;0.40;0.20;;;;;;;18.18;100.00;100143.59;5025883;28;20463;-56
2021/09/16 05:04:05;;;;;;;0.40;0.30;;;;;;;18.12;100.00;100146.66;5052151;28;20493;-56
2021/09/16 05:06:32;;;;;;;5.03;0.53;;;;;;;18.06;100.00;100138.00;5051951;28;20883;-56
2021/09/16 05:08:58;;;;;;;0.40;0.20;;;;;;;18.00;100.00;100148.28;5034602;28;20474;-56
2021/09/16 05:11:25;;;;;;;0.40;0.40;;;;;;;18.01;100.00;100150.88;5034200;28;20487;-55
2021/09/16 05:13:52;;;;;;;0.40;0.20;;;;;;;17.96;100.00;100153.00;5051616;28;20446;-56
2021/09/16 05:16:19;;;;;;;0.40;0.30;;;;;;;17.98;100.00;100167.22;5051664;28;20494;-56
2021/09/16 05:18:46;;;;;;;1.33;0.60;;;;;;;17.87;100.00;100171.50;5051516;28;20474;-56
2021/09/16 05:21:13;;;;;;;0.67;0.60;;;;;;;17.98;100.00;100169.03;5051730;28;20483;-56
2021/09/16 05:23:40;;;;;;;0.40;0.20;;;;;;;18.16;100.00;100167.91;5051544;28;20840;-56
2021/09/16 05:26:07;;;;;;;0.40;0.20;;;;;;;18.41;100.00;100167.22;5051714;28;20454;-56
2021/09/16 05:28:34;;;;;;;0.40;0.20;;;;;;;18.46;100.00;100164.25;5044113;28;20450;-56
2021/09/16 05:31:01;;;;;;;0.40;0.20;;;;;;;18.30;100.00;100165.22;5051937;28;20450;-56
2021/09/16 05:33:28;;;;;;;0.73;0.73;;;;;;;18.13;100.00;100169.91;5051684;28;20545;-56
2021/09/16 05:35:55;;;;;;;0.40;0.30;;;;;;;17.99;100.00;100176.16;5051548;28;20465;-56
2021/09/16 05:38:22;;;;;;;0.40;0.20;;;;;;;17.90;100.00;100172.19;5051449;28;20846;-56
2021/09/16 05:40:49;;;;;;;0.50;0.40;;;;;;;18.33;100.00;100170.41;5051500;28;20421;-56
2021/09/16 05:43:15;;;;;;;0.40;0.20;;;;;;;18.26;100.00;100173.59;5051490;28;20446;-56
2021/09/16 05:45:42;;;;;;;0.47;0.40;;;;;;;18.10;100.00;100180.88;5051530;28;20446;-56
2021/09/16 05:48:09;;;;;;;0.73;0.73;;;;;;;18.24;100.00;100172.81;5051360;28;20471;-56
2021/09/16 05:50:36;;;;;;;0.50;0.40;;;;;;;18.29;100.00;100168.00;5051553;28;20425;-56
2021/09/16 05:53:03;;;;;;;0.53;0.53;;;;;;;18.35;100.00;100176.53;5033904;28;20494;-56
2021/09/16 05:55:30;;;;;;;0.40;0.20;;;;;;;18.45;100.00;100184.91;5051341;28;20904;-56
2021/09/16 05:57:57;;;;;;;0.50;0.50;;;;;;;18.16;100.00;100192.09;5050853;28;20441;-56
2021/09/16 06:00:24;;;;;;;0.40;0.20;;;;;;;18.44;100.00;100190.41;5045014;28;20447;-56
2021/09/16 06:02:51;;;;;;;0.40;0.20;;;;;;;18.17;100.00;100201.91;5052058;28;20473;-56
2021/09/16 06:05:18;;;;;;;0.50;0.30;;;;;;;18.07;100.00;100200.72;5055030;28;20446;-56
2021/09/16 06:07:45;;;;;;;0.40;0.20;;;;;;;18.06;100.00;100201.69;5041574;28;20478;-56
2021/09/16 06:10:13;;;;;;;0.87;0.87;;;;;;;18.21;100.00;100202.59;5055017;28;20451;-56
2021/09/16 06:12:41;;;;;;;0.40;0.20;;;;;;;18.17;100.00;100209.97;5054699;28;20757;-56
2021/09/16 06:15:08;;;;;;;1.17;0.70;;;;;;;18.21;100.00;100210.66;5054556;28;20535;-56
2021/09/16 06:17:36;;;;;;;0.40;0.20;;;;;;;18.31;100.00;100212.69;5054664;28;20521;-55
2021/09/16 06:20:06;;;;;;;1.70;0.90;;;;;;;17.96;100.00;100208.63;5054966;28;20446;-57
2021/09/16 06:22:33;;;;;;;0.60;0.60;;;;;;;18.10;100.00;100218.53;5054651;28;20454;-57
2021/09/16 06:25:00;;;;;;;0.70;0.70;;;;;;;18.00;100.00;100219.09;5054743;28;20465;-57
2021/09/16 06:27:26;;;;;;;0.40;0.20;;;;;;;17.75;100.00;100219.69;5054378;28;20821;-57
2021/09/16 06:29:53;;;;;;;0.40;0.20;;;;;;;17.75;100.00;100221.50;5047918;28;20533;-55
2021/09/16 06:32:20;;;;;;;2.97;0.67;;;;;;;17.60;100.00;100225.06;5054591;28;20458;-56
2021/09/16 06:34:48;;;;;;;0.40;0.20;;;;;;;17.66;100.00;100232.75;5054575;28;20537;-56
2021/09/16 06:37:15;;;;;;;0.63;0.63;;;;;;;17.89;100.00;100234.13;5054312;28;20493;-56
2021/09/16 06:39:43;;;;;;;0.40;0.20;;;;;;;17.74;100.00;100239.47;5054279;28;20958;-56
2021/09/16 06:42:09;;;;;;;0.50;0.40;;;;;;;17.93;100.00;100236.53;5028037;28;20446;-56
2021/09/16 06:44:36;;;;;;;4.20;2.03;;;;;;;17.92;100.00;100231.25;5054321;28;20508;-57
2021/09/16 06:47:03;;;;;;;0.40;0.20;;;;;;;18.25;100.00;100239.13;5054157;28;20447;-56
2021/09/16 06:49:33;;;;;;;22.57;1.90;;;;;;;18.26;100.00;100238.16;5054139;28;20820;-56
2021/09/16 06:52:00;;;;;;;2.63;2.53;;;;;;;18.26;100.00;100230.97;5054280;28;20490;-57
2021/09/16 06:54:27;;;;;;;0.50;0.50;;;;;;;18.27;100.00;100237.19;5053732;28;20884;-55
2021/09/16 06:56:53;;;;;;;0.83;0.83;;;;;;;18.30;100.00;100234.31;5053863;28;20556;-57
2021/09/16 06:59:20;;;;;;;0.40;0.30;;;;;;;18.37;100.00;100238.38;5039410;28;20448;-57
2021/09/16 07:01:46;;;;;;;0.40;0.20;;;;;;;18.24;100.00;100240.94;5042014;28;20516;-55
2021/09/16 07:04:13;;;;;;;0.83;0.80;;;;;;;18.28;100.00;100241.63;5053852;28;20451;-56
2021/09/16 07:06:40;;;;;;;0.40;0.20;;;;;;;18.23;100.00;100241.91;5053698;28;20447;-56
2021/09/16 07:09:07;;;;;;;0.40;0.20;;;;;;;18.18;100.00;100240.44;5052536;28;20536;-56
2021/09/16 07:11:34;;;;;;;0.40;0.30;;;;;;;18.12;100.00;100243.53;5053889;28;20447;-57
2021/09/16 07:14:02;;;;;;;0.40;0.30;;;;;;;18.04;100.00;100252.03;5053719;28;20548;-56
2021/09/16 07:16:28;;;;;;;0.60;0.60;;;;;;;18.05;100.00;100245.69;5053489;28;20536;-57
2021/09/16 07:18:55;;;;;;;0.40;0.20;;;;;;;18.05;100.00;100253.78;5053495;28;20528;-57
2021/09/16 07:21:22;;;;;;;0.40;0.20;;;;;;;18.10;100.00;100261.59;5053511;28;20454;-56
2021/09/16 07:23:49;;;;;;;0.40;0.30;;;;;;;18.11;100.00;100255.25;5053354;28;20504;-56
2021/09/16 07:26:23;;;;;;;0.40;0.20;;;;;;;18.16;100.00;100266.59;5053735;28;20442;-56
2021/09/16 07:28:50;;;;;;;0.40;0.20;;;;;;;18.21;99.88;100259.09;5045563;28;20552;-56
2021/09/16 07:31:19;;;;;;;0.40;0.20;;;;;;;18.09;100.00;100266.06;5053592;28;20447;-56
2021/09/16 07:33:46;;;;;;;1.37;0.80;;;;;;;18.08;100.00;100263.47;5053174;28;20455;-57
2021/09/16 07:36:13;;;;;;;0.40;0.20;;;;;;;18.25;100.00;100269.59;5053049;28;20491;-57
2021/09/16 07:38:40;;;;;;;0.50;0.50;;;;;;;18.04;100.00;100263.66;5053230;28;20872;-56
2021/09/16 07:41:06;;;;;;;0.40;0.20;;;;;;;17.92;100.00;100266.22;5053198;28;21012;-57
2021/09/16 07:43:33;;;;;;;0.40;0.27;;;;;;;18.04;100.00;100270.88;5053180;28;20463;-56
2021/09/16 07:46:00;;;;;;;2.00;1.90;;;;;;;18.15;100.00;100283.69;5053194;28;20459;-57
2021/09/16 07:48:27;;;;;;;0.40;0.20;;;;;;;17.94;100.00;100281.31;5053207;28;20474;-57
2021/09/16 07:50:53;;;;;;;0.40;0.20;;;;;;;18.41;98.51;100285.66;5052882;28;20443;-56
2021/09/16 07:53:20;;;;;;;0.40;0.20;;;;;;;18.22;98.55;100285.91;5053047;28;20450;-56
2021/09/16 07:55:48;;;;;;;0.40;0.20;;;;;;;18.56;97.97;100300.88;5035299;28;20490;-56
2021/09/16 07:58:19;;;;;;;0.50;0.50;;;;;;;18.56;97.98;100308.97;5051269;28;20477;-56
2021/09/16 08:00:47;;;;;;;0.40;0.20;;;;;;;18.56;96.75;100305.41;5039705;28;20452;-56
2021/09/16 08:03:14;;;;;;;0.40;0.30;;;;;;;18.49;97.30;100304.88;5025808;28;20466;-56
2021/09/16 08:05:41;;;;;;;0.40;0.20;;;;;;;18.44;97.08;100296.25;5052573;28;20477;-57
2021/09/16 08:08:07;;;;;;;0.40;0.20;;;;;;;18.48;95.65;100303.16;5026211;28;20974;-56
2021/09/16 08:10:34;;;;;;;0.50;0.50;;;;;;;18.33;95.87;100314.84;5052709;28;20446;-57
2021/09/16 08:13:01;;;;;;;0.40;0.20;;;;;;;18.57;95.42;100318.75;5052541;28;20446;-56
2021/09/16 08:15:28;;;;;;;2.73;1.03;;;;;;;18.66;93.91;100322.75;5052350;28;20792;-56
2021/09/16 08:17:55;;;;;;;0.40;0.20;;;;;;;18.62;94.42;100311.25;5052368;28;20528;-56
2021/09/16 08:20:21;;;;;;;0.60;0.60;;;;;;;18.62;93.74;100316.63;5052274;28;20421;-56
2021/09/16 08:22:49;;;;;;;0.40;0.20;;;;;;;18.71;92.01;100317.94;5052350;28;20447;-56
2021/09/16 08:25:17;;;;;;;0.50;0.37;;;;;;;18.68;92.11;100319.97;5034931;28;20520;-56
2021/09/16 08:27:43;;;;;;;0.40;0.20;;;;;;;18.67;92.84;100318.25;5050736;28;20531;-56
2021/09/16 08:30:11;;;;;;;0.70;0.70;;;;;;;18.40;93.59;100324.31;5046929;28;20446;-56
2021/09/16 08:32:39;;;;;;;0.40;0.30;;;;;;;18.57;90.96;100329.53;5052200;28;20449;-57
2021/09/16 08:35:06;;;;;;;0.73;0.40;;;;;;;18.36;91.37;100325.44;5052207;28;20948;-57
2021/09/16 08:37:33;;;;;;;0.40;0.20;;;;;;;18.43;90.13;100321.44;5052254;28;20555;-56
2021/09/16 08:40:02;;;;;;;0.40;0.20;;;;;;;18.61;90.22;100327.50;5052178;28;20451;-57
2021/09/16 08:42:29;;;;;;;0.40;0.30;;;;;;;18.61;89.21;100325.69;5052151;28;20524;-56
2021/09/16 08:44:56;;;;;;;0.53;0.47;;;;;;;18.31;89.69;100327.53;5051901;28;20451;-56
2021/09/16 08:47:26;;;;;;;0.40;0.40;;;;;;;18.41;87.94;100333.25;5052362;28;20471;-56
2021/09/16 08:49:54;;;;;;;0.40;0.20;;;;;;;18.57;88.40;100334.91;5034674;28;20516;-57
2021/09/16 08:52:22;;;;;;;0.97;0.97;;;;;;;18.87;88.57;100336.72;5052157;28;20455;-56
2021/09/16 08:54:49;;;;;;;0.40;0.20;;;;;;;18.87;84.68;100342.09;5051860;28;20931;-57
2021/09/16 08:57:16;;;;;;;0.40;0.30;;;;;;;18.78;85.56;100348.06;5051953;28;20522;-57
2021/09/16 08:59:45;;;;;;;1.47;0.83;;;;;;;19.28;84.54;100336.81;5047016;28;20477;-57
2021/09/16 09:02:12;;;;;;;0.40;0.20;;;;;;;19.31;83.67;100342.00;5043826;28;20450;-56
2021/09/16 09:04:40;;;;;;;1.43;0.73;;;;;;;19.16;84.89;100345.66;5051900;28;20455;-55
2021/09/16 09:07:07;;;;;;;0.70;0.50;;;;;;;19.30;84.88;100348.34;5051697;28;20932;-56
2021/09/16 09:09:34;;;;;;;2.30;2.20;;;;;;;19.24;85.43;100360.41;5051759;28;20417;-56
2021/09/16 09:12:10;;;;;;;0.40;0.30;;;;;;;19.31;84.43;100347.38;5051826;28;20455;-56
2021/09/16 09:14:45;;;;;;;0.40;0.20;;;;;;;19.40;83.36;100351.31;5051968;28;20497;-56
2021/09/16 09:17:30;;;;;;;0.40;0.20;;;;;;;19.24;84.15;100349.63;5051751;28;20526;-56
2021/09/16 09:20:01;;;;;;;0.40;0.20;;;;;;;19.12;84.30;100360.31;5052006;28;20454;-57
2021/09/16 09:22:30;;;;;;;0.40;0.20;;;;;;;19.41;83.25;100361.16;5051609;28;20512;-56
2021/09/16 09:25:00;;;;;;;0.50;0.50;;;;;;;19.73;82.36;100359.09;5051763;28;20448;-56
2021/09/16 09:27:30;;;;;;;0.40;0.30;;;;;;;19.79;81.87;100346.06;5051501;28;21126;-57
2021/09/16 09:30:15;;;;;;;0.40;0.20;;;;;;;19.71;79.40;100356.50;5037502;28;20767;-56
2021/09/16 09:33:06;;;;;;;0.40;0.20;;;;;;;19.55;81.25;100350.38;5020982;28;20940;-56
2021/09/16 09:35:37;;;;;;;1.80;1.70;;;;;;;19.81;81.08;100348.66;5053891;28;20477;-57
2021/09/16 09:38:25;;;;;;;0.40;0.20;;;;;;;19.50;82.73;100344.38;5055497;28;20489;-56
2021/09/16 09:40:55;;;;;;;0.40;0.20;;;;;;;19.49;83.94;100354.31;5033191;28;20468;-56
2021/09/16 09:43:37;;;;;;;0.60;0.60;;;;;;;19.62;84.01;100350.84;5055219;28;20529;-57
2021/09/16 09:46:04;;;;;;;0.40;0.20;;;;;;;19.96;81.89;100347.66;5055539;28;20421;-57
2021/09/16 09:48:38;;;;;;;0.40;0.20;;;;;;;19.52;82.85;100348.72;5055119;28;20983;-57
2021/09/16 09:51:06;;;;;;;0.40;0.20;;;;;;;19.75;83.22;100346.41;5055203;28;20478;-57
2021/09/16 09:53:44;;;;;;;0.40;0.33;;;;;;;19.64;82.44;100348.91;5055063;28;20455;-57
2021/09/16 09:56:31;;;;;;;0.40;0.30;;;;;;;19.62;82.29;100342.75;5054852;28;20551;-56
2021/09/16 09:58:57;;;;;;;0.40;0.20;;;;;;;19.66;80.24;100339.75;5053787;28;20466;-57
2021/09/16 10:01:36;;;;;;;0.40;0.20;;;;;;;19.83;80.15;100334.09;5041889;28;20425;-57
2021/09/16 10:04:27;;;;;;;0.50;0.30;;;;;;;19.63;80.60;100339.97;5054809;28;20481;-56
2021/09/16 10:06:55;;;;;;;0.50;0.50;;;;;;;19.90;82.10;100350.78;5033029;28;21023;-57
2021/09/16 10:09:22;;;;;;;0.40;0.20;;;;;;;19.63;81.88;100356.16;5038905;28;20450;-57
2021/09/16 10:11:51;;;;;;;0.40;0.20;;;;;;;19.77;81.21;100341.75;5054865;28;20605;-57
2021/09/16 10:14:18;;;;;;;0.40;0.20;;;;;;;20.14;80.03;100348.25;5054704;28;20429;-56
2021/09/16 10:16:46;;;;;;;0.40;0.20;;;;;;;19.91;79.55;100357.03;5054691;28;20482;-57
2021/09/16 10:19:13;;;;;;;0.77;0.77;;;;;;;19.97;78.15;100354.78;5054751;28;20445;-56
2021/09/16 10:21:41;;;;;;;0.50;0.47;;;;;;;19.93;78.96;100358.66;5054748;28;20451;-57
2021/09/16 10:24:13;;;;;;;0.40;0.30;;;;;;;20.35;78.31;100356.75;5049984;28;20463;-57
2021/09/16 10:26:42;;;;;;;0.50;0.50;;;;;;;20.32;78.85;100354.25;5047078;28;20445;-57
2021/09/16 10:29:27;;;;;;;2.03;1.37;;;;;;;20.08;80.73;100362.16;5047052;28;20482;-57
2021/09/16 10:32:06;;;;;;;0.70;0.67;;;;;;;20.35;78.71;100367.53;5052756;28;20428;-57
2021/09/16 10:34:42;;;;;;;0.40;0.20;;;;;;;20.18;78.68;100362.44;5044891;28;20451;-57
2021/09/16 10:37:16;;;;;;;0.40;0.20;;;;;;;20.37;79.35;100344.00;5054041;28;20989;-56
2021/09/16 10:39:44;;;;;;;0.40;0.30;;;;;;;20.35;78.38;100348.66;5054325;28;21005;-56
2021/09/16 10:42:12;;;;;;;0.90;0.90;;;;;;;20.26;79.37;100352.81;5054249;28;20451;-56
2021/09/16 10:44:39;;;;;;;0.40;0.20;;;;;;;20.40;76.70;100349.19;5036192;28;20919;-57
2021/09/16 10:47:24;;;;;;;0.40;0.20;;;;;;;20.34;76.60;100361.28;5054235;28;20744;-56
2021/09/16 10:49:51;;;;;;;0.50;0.40;;;;;;;20.54;76.62;100356.38;5053991;28;20939;-57
2021/09/16 10:52:23;;;;;;;0.40;0.20;;;;;;;20.24;77.50;100357.47;5053983;28;20462;-57
2021/09/16 10:54:57;;;;;;;0.43;0.37;;;;;;;20.78;75.88;100364.63;5054085;28;20451;-57
2021/09/16 10:57:35;;;;;;;0.40;0.20;;;;;;;20.65;77.95;100359.19;5053990;28;20464;-57
2021/09/16 11:00:13;;;;;;;0.77;0.50;;;;;;;21.05;75.15;100356.41;5046070;28;20841;-57
2021/09/16 11:02:39;;;;;;;0.40;0.20;;;;;;;20.52;76.07;100351.06;5031240;28;20533;-56
2021/09/16 11:05:12;;;;;;;0.40;0.20;;;;;;;20.38;77.87;100352.00;5036329;28;20513;-57
2021/09/16 11:10:21;;;;;;;0.40;0.20;;;;;;;20.12;77.53;100355.59;5012479;28;20439;-56
2021/09/16 11:13:06;;;;;;;0.40;0.30;;;;;;;20.07;78.56;100345.09;5013973;28;20444;-56
2021/09/16 11:15:36;;;;;;;0.83;0.83;;;;;;;20.40;78.78;100341.94;5014244;28;20499;-56
2021/09/16 11:18:15;;;;;;;0.40;0.37;;;;;;;20.47;77.80;100347.84;5013879;28;20578;-56
2021/09/16 11:20:45;;;;;;;0.40;0.23;;;;;;;20.51;77.99;100345.78;4999533;28;20498;-56
2021/09/16 11:23:14;;;;;;;0.40;0.20;;;;;;;20.47;76.80;100345.13;5014267;28;20514;-56
2021/09/16 11:25:43;;;;;;;0.40;0.20;;;;;;;20.60;76.98;100346.03;5009678;28;20457;-56
2021/09/16 11:28:11;;;;;;;0.80;0.80;;;;;;;20.78;77.18;100343.00;5005328;28;20443;-56